Sarcoxie, Missouri
Current Conditions -  °F | °C
As of 1:55 PM on Wednesday 28 Jan 2015 (Local Time) from KHFJ Reporting Station
Clear Clear  
Wind Chill: 70°   Ceiling: Unl
Heat Index: 70°   Visibility: 10mi
Dew Point: 39°   Wind: 26mph
Humidity: 33%   Direction: 200°SSW
Pressure: 29.91"   Gusts: 31mph
Location:  37.07°N, 94.12°W
Report Text: KHFJ 281955Z AUTO 20023G27KT 10SM CLR 21/04 A2991 RMK AO2
Loading
Personal Weather Stations






























Interactive Weather Map New forecast layout! Learn more

10-Day Weather Forecast

Advertisements
Track Severe Weather on mobile